sensor_id;sensor_type;location;lat;lon;timestamp;pressure;altitude;pressure_sealevel;temperature;humidity
12666;BME280;58531;59.050;17.416;2024-03-29T00:02:15;98105.91;;;5.14;100.00
12666;BME280;58531;59.050;17.416;2024-03-29T00:04:41;98109.00;;;5.13;100.00
12666;BME280;58531;59.050;17.416;2024-03-29T00:07:07;98107.09;;;5.13;100.00
12666;BME280;58531;59.050;17.416;2024-03-29T00:09:33;98103.44;;;5.11;100.00
12666;BME280;58531;59.050;17.416;2024-03-29T00:12:00;98096.88;;;5.06;100.00
12666;BME280;58531;59.050;17.416;2024-03-29T00:14:26;98097.63;;;5.07;100.00
12666;BME280;58531;59.050;17.416;2024-03-29T00:16:52;98108.22;;;5.07;100.00
12666;BME280;58531;59.050;17.416;2024-03-29T00:19:18;98113.50;;;5.07;100.00
12666;BME280;58531;59.050;17.416;2024-03-29T00:21:44;98116.59;;;5.05;100.00
12666;BME280;58531;59.050;17.416;2024-03-29T00:24:10;98117.34;;;5.06;100.00
12666;BME280;58531;59.050;17.416;2024-03-29T00:26:36;98116.16;;;5.07;100.00
12666;BME280;58531;59.050;17.416;2024-03-29T00:29:03;98108.22;;;5.07;100.00
12666;BME280;58531;59.050;17.416;2024-03-29T00:31:29;98106.00;;;5.05;100.00
12666;BME280;58531;59.050;17.416;2024-03-29T00:33:55;98112.41;;;4.99;100.00
12666;BME280;58531;59.050;17.416;2024-03-29T00:36:21;98113.50;;;4.92;100.00
12666;BME280;58531;59.050;17.416;2024-03-29T00:38:47;98112.03;;;4.91;100.00
12666;BME280;58531;59.050;17.416;2024-03-29T00:41:12;98114.88;;;4.88;100.00
12666;BME280;58531;59.050;17.416;2024-03-29T00:43:38;98116.78;;;4.87;100.00
12666;BME280;58531;59.050;17.416;2024-03-29T00:46:06;98107.09;;;4.84;100.00
12666;BME280;58531;59.050;17.416;2024-03-29T00:48:31;98113.13;;;4.85;100.00
12666;BME280;58531;59.050;17.416;2024-03-29T00:50:57;98108.56;;;4.85;100.00
12666;BME280;58531;59.050;17.416;2024-03-29T00:53:23;98114.78;;;4.82;100.00
12666;BME280;58531;59.050;17.416;2024-03-29T00:55:49;98117.16;;;4.80;100.00
12666;BME280;58531;59.050;17.416;2024-03-29T00:58:15;98116.41;;;4.80;100.00
12666;BME280;58531;59.050;17.416;2024-03-29T01:00:40;98114.53;;;4.80;100.00
12666;BME280;58531;59.050;17.416;2024-03-29T01:03:08;98106.03;;;4.76;100.00
12666;BME280;58531;59.050;17.416;2024-03-29T01:05:34;98108.97;;;4.78;100.00
12666;BME280;58531;59.050;17.416;2024-03-29T01:07:59;98116.88;;;4.78;100.00
12666;BME280;58531;59.050;17.416;2024-03-29T01:10:25;98113.06;;;4.79;100.00
12666;BME280;58531;59.050;17.416;2024-03-29T01:12:51;98118.50;;;4.76;100.00
12666;BME280;58531;59.050;17.416;2024-03-29T01:15:17;98112.50;;;4.75;100.00
12666;BME280;58531;59.050;17.416;2024-03-29T01:17:43;98120.44;;;4.75;100.00
12666;BME280;58531;59.050;17.416;2024-03-29T01:20:11;98131.28;;;4.77;100.00
12666;BME280;58531;59.050;17.416;2024-03-29T01:22:36;98131.00;;;4.75;100.00
12666;BME280;58531;59.050;17.416;2024-03-29T01:25:03;98123.53;;;4.74;100.00
12666;BME280;58531;59.050;17.416;2024-03-29T01:27:28;98126.63;;;4.72;100.00
12666;BME280;58531;59.050;17.416;2024-03-29T01:29:57;98129.28;;;4.72;100.00
12666;BME280;58531;59.050;17.416;2024-03-29T01:32:23;98131.66;;;4.70;100.00
12666;BME280;58531;59.050;17.416;2024-03-29T01:34:49;98136.94;;;4.70;100.00
12666;BME280;58531;59.050;17.416;2024-03-29T01:37:16;98134.28;;;4.70;100.00
12666;BME280;58531;59.050;17.416;2024-03-29T01:39:42;98142.22;;;4.70;100.00
12666;BME280;58531;59.050;17.416;2024-03-29T01:42:08;98143.22;;;4.73;100.00
12666;BME280;58531;59.050;17.416;2024-03-29T01:44:37;98128.81;;;4.74;100.00
12666;BME280;58531;59.050;17.416;2024-03-29T01:47:04;98137.94;;;4.73;100.00
12666;BME280;58531;59.050;17.416;2024-03-29T01:49:31;98138.84;;;4.70;100.00
12666;BME280;58531;59.050;17.416;2024-03-29T01:51:58;98141.75;;;4.72;100.00
12666;BME280;58531;59.050;17.416;2024-03-29T01:54:26;98145.59;;;4.71;100.00
12666;BME280;58531;59.050;17.416;2024-03-29T01:56:54;98151.78;;;4.68;100.00
12666;BME280;58531;59.050;17.416;2024-03-29T01:59:22;98153.50;;;4.71;100.00
12666;BME280;58531;59.050;17.416;2024-03-29T02:01:48;98157.19;;;4.73;100.00
12666;BME280;58531;59.050;17.416;2024-03-29T02:04:15;98156.91;;;4.71;100.00
12666;BME280;58531;59.050;17.416;2024-03-29T02:06:43;98163.66;;;4.72;100.00
12666;BME280;58531;59.050;17.416;2024-03-29T02:09:10;98159.97;;;4.70;100.00
12666;BME280;58531;59.050;17.416;2024-03-29T02:11:38;98168.66;;;4.70;100.00
12666;BME280;58531;59.050;17.416;2024-03-29T02:14:06;98166.91;;;4.67;100.00
12666;BME280;58531;59.050;17.416;2024-03-29T02:16:33;98179.84;;;4.65;100.00
12666;BME280;58531;59.050;17.416;2024-03-29T02:19:00;98176.94;;;4.63;100.00
12666;BME280;58531;59.050;17.416;2024-03-29T02:21:27;98185.31;;;4.62;100.00
12666;BME280;58531;59.050;17.416;2024-03-29T02:24:01;98185.31;;;4.62;100.00
12666;BME280;58531;59.050;17.416;2024-03-29T02:26:28;98194.88;;;4.60;100.00
12666;BME280;58531;59.050;17.416;2024-03-29T02:28:58;98198.97;;;4.61;100.00
12666;BME280;58531;59.050;17.416;2024-03-29T02:31:25;98195.78;;;4.57;100.00
12666;BME280;58531;59.050;17.416;2024-03-29T02:33:52;98187.84;;;4.57;100.00
12666;BME280;58531;59.050;17.416;2024-03-29T02:36:19;98194.31;;;4.56;100.00
12666;BME280;58531;59.050;17.416;2024-03-29T02:38:45;98195.78;;;4.57;100.00
12666;BME280;58531;59.050;17.416;2024-03-29T02:41:14;98199.88;;;4.58;100.00
12666;BME280;58531;59.050;17.416;2024-03-29T02:43:41;98202.25;;;4.56;100.00
12666;BME280;58531;59.050;17.416;2024-03-29T02:46:07;98201.06;;;4.57;100.00
12666;BME280;58531;59.050;17.416;2024-03-29T02:48:34;98199.59;;;4.56;100.00
12666;BME280;58531;59.050;17.416;2024-03-29T02:51:03;98197.72;;;4.56;100.00
12666;BME280;58531;59.050;17.416;2024-03-29T02:53:30;98183.31;;;4.57;100.00
12666;BME280;58531;59.050;17.416;2024-03-29T02:55:57;98187.84;;;4.57;100.00
12666;BME280;58531;59.050;17.416;2024-03-29T02:58:24;98187.66;;;4.60;100.00
12666;BME280;58531;59.050;17.416;2024-03-29T03:00:51;98197.53;;;4.60;100.00
12666;BME280;58531;59.050;17.416;2024-03-29T03:03:17;98189.88;;;4.62;100.00
12666;BME280;58531;59.050;17.416;2024-03-29T03:05:44;98196.63;;;4.63;100.00
12666;BME280;58531;59.050;17.416;2024-03-29T03:08:10;98189.88;;;4.62;100.00
12666;BME280;58531;59.050;17.416;2024-03-29T03:10:54;98205.25;;;4.63;100.00
12666;BME280;58531;59.050;17.416;2024-03-29T03:13:28;98207.75;;;4.66;100.00
12666;BME280;58531;59.050;17.416;2024-03-29T03:15:55;98209.66;;;4.66;100.00
12666;BME280;58531;59.050;17.416;2024-03-29T03:18:22;98215.22;;;4.68;100.00
12666;BME280;58531;59.050;17.416;2024-03-29T03:20:52;98219.78;;;4.67;100.00
12666;BME280;58531;59.050;17.416;2024-03-29T03:23:18;98222.72;;;4.69;100.00
12666;BME280;58531;59.050;17.416;2024-03-29T03:25:52;98221.97;;;4.69;100.00
12666;BME280;58531;59.050;17.416;2024-03-29T03:28:18;98223.00;;;4.71;100.00
12666;BME280;58531;59.050;17.416;2024-03-29T03:30:47;98220.34;;;4.71;100.00
12666;BME280;58531;59.050;17.416;2024-03-29T03:33:13;98229.28;;;4.74;100.00
12666;BME280;58531;59.050;17.416;2024-03-29T03:35:40;98236.00;;;4.75;100.00
12666;BME280;58531;59.050;17.416;2024-03-29T03:38:06;98238.94;;;4.77;100.00
12666;BME280;58531;59.050;17.416;2024-03-29T03:40:34;98240.41;;;4.78;100.00
12666;BME280;58531;59.050;17.416;2024-03-29T03:43:00;98249.34;;;4.80;100.00
12666;BME280;58531;59.050;17.416;2024-03-29T03:45:27;98252.28;;;4.82;100.00
12666;BME280;58531;59.050;17.416;2024-03-29T03:47:54;98265.66;;;4.79;100.00
12666;BME280;58531;59.050;17.416;2024-03-29T03:50:21;98267.88;;;4.80;100.00
12666;BME280;58531;59.050;17.416;2024-03-29T03:52:47;98266.41;;;4.79;100.00
12666;BME280;58531;59.050;17.416;2024-03-29T03:55:15;98269.59;;;4.83;100.00
12666;BME280;58531;59.050;17.416;2024-03-29T03:57:41;98275.63;;;4.84;100.00
12666;BME280;58531;59.050;17.416;2024-03-29T04:00:09;98285.19;;;4.81;100.00
12666;BME280;58531;59.050;17.416;2024-03-29T04:02:35;98289.31;;;4.82;100.00
12666;BME280;58531;59.050;17.416;2024-03-29T04:05:03;98286.91;;;4.84;100.00
12666;BME280;58531;59.050;17.416;2024-03-29T04:07:31;98285.00;;;4.85;100.00
12666;BME280;58531;59.050;17.416;2024-03-29T04:09:58;98283.34;;;4.87;100.00
12666;BME280;58531;59.050;17.416;2024-03-29T04:12:24;98295.41;;;4.88;100.00
12666;BME280;58531;59.050;17.416;2024-03-29T04:14:51;98290.38;;;4.90;100.00
12666;BME280;58531;59.050;17.416;2024-03-29T04:17:17;98289.50;;;4.93;100.00
12666;BME280;58531;59.050;17.416;2024-03-29T04:19:43;98285.66;;;4.94;100.00
12666;BME280;58531;59.050;17.416;2024-03-29T04:22:12;98289.06;;;4.95;100.00
12666;BME280;58531;59.050;17.416;2024-03-29T04:24:39;98289.34;;;4.97;100.00
12666;BME280;58531;59.050;17.416;2024-03-29T04:27:05;98302.38;;;5.00;100.00
12666;BME280;58531;59.050;17.416;2024-03-29T04:29:32;98310.59;;;5.02;100.00
12666;BME280;58531;59.050;17.416;2024-03-29T04:31:58;98311.31;;;5.03;100.00
12666;BME280;58531;59.050;17.416;2024-03-29T04:34:25;98305.56;;;5.04;100.00
12666;BME280;58531;59.050;17.416;2024-03-29T04:36:50;98301.03;;;5.05;100.00
12666;BME280;58531;59.050;17.416;2024-03-29T04:39:19;98301.75;;;5.05;100.00
12666;BME280;58531;59.050;17.416;2024-03-29T04:41:46;98301.47;;;5.03;100.00
12666;BME280;58531;59.050;17.416;2024-03-29T04:44:22;98298.09;;;5.03;100.00
12666;BME280;58531;59.050;17.416;2024-03-29T04:46:49;98308.97;;;5.05;100.00
12666;BME280;58531;59.050;17.416;2024-03-29T04:49:18;98319.81;;;5.07;100.00
12666;BME280;58531;59.050;17.416;2024-03-29T04:51:48;98318.16;;;5.09;100.00
12666;BME280;58531;59.050;17.416;2024-03-29T04:54:15;98316.53;;;5.12;100.00
12666;BME280;58531;59.050;17.416;2024-03-29T04:56:44;98320.19;;;5.14;100.00
12666;BME280;58531;59.050;17.416;2024-03-29T04:59:11;98325.03;;;5.16;100.00
12666;BME280;58531;59.050;17.416;2024-03-29T05:01:39;98324.13;;;5.19;100.00
12666;BME280;58531;59.050;17.416;2024-03-29T05:04:07;98319.09;;;5.21;100.00
12666;BME280;58531;59.050;17.416;2024-03-29T05:06:33;98325.69;;;5.25;100.00
12666;BME280;58531;59.050;17.416;2024-03-29T05:09:00;98329.34;;;5.28;100.00
12666;BME280;58531;59.050;17.416;2024-03-29T05:11:27;98335.09;;;5.26;100.00
12666;BME280;58531;59.050;17.416;2024-03-29T05:13:56;98331.53;;;5.29;100.00
12666;BME280;58531;59.050;17.416;2024-03-29T05:16:26;98334.47;;;5.31;100.00
12666;BME280;58531;59.050;17.416;2024-03-29T05:18:52;98334.00;;;5.33;100.00
12666;BME280;58531;59.050;17.416;2024-03-29T05:21:19;98336.47;;;5.36;100.00
12666;BME280;58531;59.050;17.416;2024-03-29T05:23:46;98340.13;;;5.39;100.00
12666;BME280;58531;59.050;17.416;2024-03-29T05:26:13;98341.13;;;5.41;100.00
12666;BME280;58531;59.050;17.416;2024-03-29T05:28:40;98341.41;;;5.43;100.00
12666;BME280;58531;59.050;17.416;2024-03-29T05:31:13;98341.97;;;5.47;100.00
12666;BME280;58531;59.050;17.416;2024-03-29T05:33:40;98347.53;;;5.49;100.00
12666;BME280;58531;59.050;17.416;2024-03-29T05:36:07;98351.91;;;5.52;100.00
12666;BME280;58531;59.050;17.416;2024-03-29T05:38:36;98354.84;;;5.54;100.00
12666;BME280;58531;59.050;17.416;2024-03-29T05:41:03;98351.28;;;5.57;100.00
12666;BME280;58531;59.050;17.416;2024-03-29T05:43:30;98354.22;;;5.59;100.00
12666;BME280;58531;59.050;17.416;2024-03-29T05:45:57;98357.13;;;5.61;100.00
12666;BME280;58531;59.050;17.416;2024-03-29T05:48:27;98358.59;;;5.62;100.00
12666;BME280;58531;59.050;17.416;2024-03-29T05:50:54;98373.56;;;5.65;100.00
12666;BME280;58531;59.050;17.416;2024-03-29T05:53:21;98376.94;;;5.66;100.00
12666;BME280;58531;59.050;17.416;2024-03-29T05:55:50;98377.69;;;5.66;100.00
12666;BME280;58531;59.050;17.416;2024-03-29T05:58:17;98381.78;;;5.67;100.00
12666;BME280;58531;59.050;17.416;2024-03-29T06:00:46;98385.44;;;5.70;100.00
12666;BME280;58531;59.050;17.416;2024-03-29T06:03:13;98369.38;;;5.73;100.00
12666;BME280;58531;59.050;17.416;2024-03-29T06:05:41;98387.31;;;5.78;100.00
12666;BME280;58531;59.050;17.416;2024-03-29T06:08:08;98389.59;;;5.85;100.00
12666;BME280;58531;59.050;17.416;2024-03-29T06:10:35;98393.34;;;5.93;100.00
12666;BME280;58531;59.050;17.416;2024-03-29T06:13:05;98401.84;;;5.97;100.00
12666;BME280;58531;59.050;17.416;2024-03-29T06:15:36;98411.06;;;6.01;100.00
12666;BME280;58531;59.050;17.416;2024-03-29T06:18:20;98421.31;;;6.08;100.00
12666;BME280;58531;59.050;17.416;2024-03-29T06:20:49;98433.19;;;6.13;100.00
12666;BME280;58531;59.050;17.416;2024-03-29T06:23:16;98441.69;;;6.17;100.00
12666;BME280;58531;59.050;17.416;2024-03-29T06:25:44;98445.03;;;6.17;100.00
12666;BME280;58531;59.050;17.416;2024-03-29T06:28:11;98436.09;;;6.15;100.00
12666;BME280;58531;59.050;17.416;2024-03-29T06:30:38;98439.94;;;6.14;100.00
12666;BME280;58531;59.050;17.416;2024-03-29T06:33:05;98454.38;;;6.13;100.00
12666;BME280;58531;59.050;17.416;2024-03-29T06:35:33;98473.66;;;6.13;100.00
12666;BME280;58531;59.050;17.416;2024-03-29T06:38:01;98458.94;;;6.12;100.00
12666;BME280;58531;59.050;17.416;2024-03-29T06:40:28;98467.16;;;6.14;100.00
12666;BME280;58531;59.050;17.416;2024-03-29T06:42:55;98473.00;;;6.18;100.00
12666;BME280;58531;59.050;17.416;2024-03-29T06:45:23;98469.00;;;6.23;100.00
12666;BME280;58531;59.050;17.416;2024-03-29T06:47:50;98481.72;;;6.33;100.00
12666;BME280;58531;59.050;17.416;2024-03-29T06:50:18;98488.66;;;6.45;100.00
12666;BME280;58531;59.050;17.416;2024-03-29T06:52:44;98493.41;;;6.56;100.00
12666;BME280;58531;59.050;17.416;2024-03-29T06:55:13;98509.94;;;6.65;100.00
12666;BME280;58531;59.050;17.416;2024-03-29T06:57:40;98517.72;;;6.69;100.00
12666;BME280;58531;59.050;17.416;2024-03-29T07:00:08;98528.59;;;6.71;100.00
12666;BME280;58531;59.050;17.416;2024-03-29T07:02:35;98520.94;;;6.73;100.00
12666;BME280;58531;59.050;17.416;2024-03-29T07:05:02;98534.72;;;6.77;100.00
12666;BME280;58531;59.050;17.416;2024-03-29T07:07:33;98540.31;;;6.79;100.00
12666;BME280;58531;59.050;17.416;2024-03-29T07:09:59;98551.75;;;6.85;100.00
12666;BME280;58531;59.050;17.416;2024-03-29T07:12:28;98552.28;;;6.89;100.00
12666;BME280;58531;59.050;17.416;2024-03-29T07:14:55;98553.09;;;6.95;100.00
12666;BME280;58531;59.050;17.416;2024-03-29T07:17:21;98558.56;;;7.05;100.00
12666;BME280;58531;59.050;17.416;2024-03-29T07:19:48;98559.28;;;7.20;100.00
12666;BME280;58531;59.050;17.416;2024-03-29T07:22:15;98567.22;;;7.35;100.00
12666;BME280;58531;59.050;17.416;2024-03-29T07:24:42;98567.09;;;7.44;100.00
12666;BME280;58531;59.050;17.416;2024-03-29T07:27:09;98578.88;;;7.57;100.00
12666;BME280;58531;59.050;17.416;2024-03-29T07:29:38;98592.16;;;7.57;100.00
12666;BME280;58531;59.050;17.416;2024-03-29T07:32:06;98599.47;;;7.62;100.00
12666;BME280;58531;59.050;17.416;2024-03-29T07:34:33;98593.59;;;7.58;100.00
12666;BME280;58531;59.050;17.416;2024-03-29T07:37:00;98596.25;;;7.58;100.00
12666;BME280;58531;59.050;17.416;2024-03-29T07:39:27;98600.97;;;7.49;100.00
12666;BME280;58531;59.050;17.416;2024-03-29T07:41:54;98596.59;;;7.46;100.00
12666;BME280;58531;59.050;17.416;2024-03-29T07:44:21;98601.25;;;7.51;100.00
12666;BME280;58531;59.050;17.416;2024-03-29T07:46:49;98589.97;;;7.41;100.00
12666;BME280;58531;59.050;17.416;2024-03-29T07:49:16;98607.09;;;7.40;100.00
12666;BME280;58531;59.050;17.416;2024-03-29T07:51:47;98603.34;;;7.47;100.00
12666;BME280;58531;59.050;17.416;2024-03-29T07:54:15;98616.38;;;7.45;100.00
12666;BME280;58531;59.050;17.416;2024-03-29T07:56:42;98623.84;;;7.46;100.00
12666;BME280;58531;59.050;17.416;2024-03-29T07:59:08;98620.72;;;7.62;100.00
12666;BME280;58531;59.050;17.416;2024-03-29T08:01:35;98619.34;;;7.87;100.00
12666;BME280;58531;59.050;17.416;2024-03-29T08:04:04;98622.69;;;8.02;100.00
12666;BME280;58531;59.050;17.416;2024-03-29T08:06:31;98628.22;;;8.18;100.00
12666;BME280;58531;59.050;17.416;2024-03-29T08:08:58;98639.41;;;8.22;100.00
12666;BME280;58531;59.050;17.416;2024-03-29T08:11:25;98643.91;;;8.36;100.00
12666;BME280;58531;59.050;17.416;2024-03-29T08:13:51;98650.22;;;8.58;100.00
12666;BME280;58531;59.050;17.416;2024-03-29T08:16:18;98652.81;;;8.53;100.00
12666;BME280;58531;59.050;17.416;2024-03-29T08:18:46;98647.47;;;8.53;100.00
12666;BME280;58531;59.050;17.416;2024-03-29T08:21:14;98661.03;;;8.55;100.00
12666;BME280;58531;59.050;17.416;2024-03-29T08:23:41;98657.13;;;8.50;100.00
12666;BME280;58531;59.050;17.416;2024-03-29T08:26:13;98662.38;;;8.65;100.00
12666;BME280;58531;59.050;17.416;2024-03-29T08:28:40;98663.56;;;8.64;100.00
12666;BME280;58531;59.050;17.416;2024-03-29T08:31:07;98671.19;;;8.76;100.00
12666;BME280;58531;59.050;17.416;2024-03-29T08:33:35;98663.13;;;8.91;100.00
12666;BME280;58531;59.050;17.416;2024-03-29T08:36:04;98666.91;;;9.10;100.00
12666;BME280;58531;59.050;17.416;2024-03-29T08:38:33;98678.72;;;9.29;100.00
12666;BME280;58531;59.050;17.416;2024-03-29T08:41:00;98679.38;;;9.54;100.00
12666;BME280;58531;59.050;17.416;2024-03-29T08:43:27;98678.25;;;9.66;100.00
12666;BME280;58531;59.050;17.416;2024-03-29T08:45:54;98683.06;;;9.93;100.00
12666;BME280;58531;59.050;17.416;2024-03-29T08:48:22;98681.59;;;9.92;100.00
12666;BME280;58531;59.050;17.416;2024-03-29T08:50:49;98690.06;;;9.91;100.00
12666;BME280;58531;59.050;17.416;2024-03-29T08:53:16;98688.59;;;9.90;100.00
12666;BME280;58531;59.050;17.416;2024-03-29T08:55:46;98690.22;;;9.76;100.00
12666;BME280;58531;59.050;17.416;2024-03-29T08:58:14;98688.38;;;9.57;100.00
12666;BME280;58531;59.050;17.416;2024-03-29T09:00:41;98700.53;;;9.63;100.00
12666;BME280;58531;59.050;17.416;2024-03-29T09:03:08;98697.34;;;9.59;100.00
12666;BME280;58531;59.050;17.416;2024-03-29T09:05:38;98698.91;;;9.71;100.00
12666;BME280;58531;59.050;17.416;2024-03-29T09:08:05;98699.94;;;9.79;100.00
12666;BME280;58531;59.050;17.416;2024-03-29T09:10:32;98700.78;;;9.65;100.00
12666;BME280;58531;59.050;17.416;2024-03-29T09:13:00;98710.28;;;9.72;100.00
12666;BME280;58531;59.050;17.416;2024-03-29T09:15:28;98712.75;;;9.81;100.00
12666;BME280;58531;59.050;17.416;2024-03-29T09:17:55;98719.50;;;10.07;100.00
12666;BME280;58531;59.050;17.416;2024-03-29T09:20:22;98718.91;;;10.29;100.00
12666;BME280;58531;59.050;17.416;2024-03-29T09:22:51;98727.91;;;10.31;100.00
12666;BME280;58531;59.050;17.416;2024-03-29T09:25:18;98721.69;;;10.51;100.00
12666;BME280;58531;59.050;17.416;2024-03-29T09:27:45;98734.00;;;10.43;100.00
12666;BME280;58531;59.050;17.416;2024-03-29T09:30:15;98738.66;;;10.48;100.00
12666;BME280;58531;59.050;17.416;2024-03-29T09:32:44;98731.41;;;10.59;100.00
12666;BME280;58531;59.050;17.416;2024-03-29T09:35:11;98738.44;;;10.57;100.00
12666;BME280;58531;59.050;17.416;2024-03-29T09:37:38;98735.75;;;10.51;100.00
12666;BME280;58531;59.050;17.416;2024-03-29T09:40:06;98737.69;;;10.45;100.00
12666;BME280;58531;59.050;17.416;2024-03-29T09:42:34;98739.84;;;10.47;100.00
12666;BME280;58531;59.050;17.416;2024-03-29T09:45:02;98751.69;;;10.35;100.00
12666;BME280;58531;59.050;17.416;2024-03-29T09:47:33;98760.63;;;10.26;100.00
12666;BME280;58531;59.050;17.416;2024-03-29T09:50:03;98763.47;;;10.23;100.00
12666;BME280;58531;59.050;17.416;2024-03-29T09:52:31;98764.66;;;10.16;100.00
12666;BME280;58531;59.050;17.416;2024-03-29T09:55:00;98778.34;;;10.29;100.00
12666;BME280;58531;59.050;17.416;2024-03-29T09:57:27;98784.72;;;10.43;100.00
12666;BME280;58531;59.050;17.416;2024-03-29T09:59:56;98784.28;;;10.50;100.00
12666;BME280;58531;59.050;17.416;2024-03-29T10:02:26;98778.44;;;10.46;100.00
12666;BME280;58531;59.050;17.416;2024-03-29T10:04:57;98784.25;;;10.44;100.00
12666;BME280;58531;59.050;17.416;2024-03-29T10:07:27;98784.56;;;10.21;100.00
12666;BME280;58531;59.050;17.416;2024-03-29T10:09:55;98792.53;;;9.84;100.00
12666;BME280;58531;59.050;17.416;2024-03-29T10:12:24;98799.66;;;9.67;100.00
12666;BME280;58531;59.050;17.416;2024-03-29T10:14:51;98810.22;;;9.56;100.00
12666;BME280;58531;59.050;17.416;2024-03-29T10:17:20;98810.06;;;9.40;100.00
12666;BME280;58531;59.050;17.416;2024-03-29T10:19:47;98822.13;;;9.36;100.00
12666;BME280;58531;59.050;17.416;2024-03-29T10:22:15;98814.09;;;9.55;100.00
12666;BME280;58531;59.050;17.416;2024-03-29T10:24:43;98811.63;;;9.77;100.00
12666;BME280;58531;59.050;17.416;2024-03-29T10:27:09;98821.88;;;10.15;100.00
12666;BME280;58531;59.050;17.416;2024-03-29T10:29:36;98822.97;;;10.70;100.00
12666;BME280;58531;59.050;17.416;2024-03-29T10:32:04;98820.19;;;11.07;100.00
12666;BME280;58531;59.050;17.416;2024-03-29T10:34:31;98832.97;;;11.45;100.00
12666;BME280;58531;59.050;17.416;2024-03-29T10:37:02;98825.41;;;11.49;100.00
12666;BME280;58531;59.050;17.416;2024-03-29T10:39:31;98838.06;;;11.54;100.00
12666;BME280;58531;59.050;17.416;2024-03-29T10:41:59;98838.34;;;11.56;100.00
12666;BME280;58531;59.050;17.416;2024-03-29T10:44:29;98840.81;;;11.86;100.00
12666;BME280;58531;59.050;17.416;2024-03-29T10:46:56;98847.16;;;12.16;100.00
12666;BME280;58531;59.050;17.416;2024-03-29T10:49:24;98847.84;;;12.28;100.00
12666;BME280;58531;59.050;17.416;2024-03-29T10:51:53;98845.19;;;11.95;100.00
12666;BME280;58531;59.050;17.416;2024-03-29T10:54:22;98845.41;;;11.64;100.00
12666;BME280;58531;59.050;17.416;2024-03-29T10:56:59;98859.94;;;11.47;100.00
12666;BME280;58531;59.050;17.416;2024-03-29T10:59:32;98861.63;;;11.50;100.00
12666;BME280;58531;59.050;17.416;2024-03-29T11:02:12;98864.78;;;11.43;100.00
12666;BME280;58531;59.050;17.416;2024-03-29T11:04:40;98858.94;;;11.50;100.00
12666;BME280;58531;59.050;17.416;2024-03-29T11:07:13;98862.38;;;11.45;100.00
12666;BME280;58531;59.050;17.416;2024-03-29T11:09:43;98870.78;;;11.21;100.00
12666;BME280;58531;59.050;17.416;2024-03-29T11:12:14;98880.78;;;11.32;100.00
12666;BME280;58531;59.050;17.416;2024-03-29T11:14:46;98870.56;;;11.25;100.00
12666;BME280;58531;59.050;17.416;2024-03-29T11:17:14;98882.50;;;11.35;100.00
12666;BME280;58531;59.050;17.416;2024-03-29T11:19:41;98882.84;;;11.64;100.00
12666;BME280;58531;59.050;17.416;2024-03-29T11:22:09;98894.06;;;11.84;100.00
12666;BME280;58531;59.050;17.416;2024-03-29T11:24:38;98892.16;;;12.29;100.00
12666;BME280;58531;59.050;17.416;2024-03-29T11:27:09;98906.75;;;12.44;100.00
12666;BME280;58531;59.050;17.416;2024-03-29T11:29:41;98897.03;;;12.19;100.00
12666;BME280;58531;59.050;17.416;2024-03-29T11:32:11;98905.78;;;12.25;100.00
12666;BME280;58531;59.050;17.416;2024-03-29T11:34:43;98895.78;;;12.48;100.00
12666;BME280;58531;59.050;17.416;2024-03-29T11:37:11;98886.53;;;12.27;100.00
12666;BME280;58531;59.050;17.416;2024-03-29T11:39:38;98893.88;;;12.10;100.00
12666;BME280;58531;59.050;17.416;2024-03-29T11:42:06;98893.09;;;11.93;100.00
12666;BME280;58531;59.050;17.416;2024-03-29T11:44:32;98899.41;;;11.74;100.00
12666;BME280;58531;59.050;17.416;2024-03-29T11:47:03;98898.41;;;11.60;100.00
12666;BME280;58531;59.050;17.416;2024-03-29T11:49:32;98907.56;;;11.54;100.00
12666;BME280;58531;59.050;17.416;2024-03-29T11:52:03;98907.56;;;11.48;100.00
12666;BME280;58531;59.050;17.416;2024-03-29T11:54:37;98909.00;;;11.44;100.00
12666;BME280;58531;59.050;17.416;2024-03-29T11:57:04;98917.03;;;11.44;100.00
12666;BME280;58531;59.050;17.416;2024-03-29T11:59:31;98926.50;;;11.45;100.00
12666;BME280;58531;59.050;17.416;2024-03-29T12:02:02;98915.06;;;11.39;100.00
12666;BME280;58531;59.050;17.416;2024-03-29T12:04:31;98927.00;;;11.49;100.00
12666;BME280;58531;59.050;17.416;2024-03-29T12:06:58;98927.97;;;11.46;100.00
12666;BME280;58531;59.050;17.416;2024-03-29T12:09:25;98933.53;;;11.48;100.00
12666;BME280;58531;59.050;17.416;2024-03-29T12:11:52;98939.63;;;11.43;100.00
12666;BME280;58531;59.050;17.416;2024-03-29T12:14:19;98938.63;;;11.35;100.00
12666;BME280;58531;59.050;17.416;2024-03-29T12:16:47;98935.63;;;11.22;100.00
12666;BME280;58531;59.050;17.416;2024-03-29T12:19:23;98941.66;;;11.11;100.00
12666;BME280;58531;59.050;17.416;2024-03-29T12:21:53;98939.19;;;11.08;100.00
12666;BME280;58531;59.050;17.416;2024-03-29T12:24:20;98944.59;;;11.13;100.00
12666;BME280;58531;59.050;17.416;2024-03-29T12:26:48;98944.09;;;11.15;100.00
12666;BME280;58531;59.050;17.416;2024-03-29T12:29:15;98939.28;;;11.24;100.00
12666;BME280;58531;59.050;17.416;2024-03-29T12:31:42;98949.31;;;11.35;100.00
12666;BME280;58531;59.050;17.416;2024-03-29T12:34:09;98944.50;;;11.50;100.00
12666;BME280;58531;59.050;17.416;2024-03-29T12:36:37;98947.03;;;11.70;100.00
12666;BME280;58531;59.050;17.416;2024-03-29T12:39:04;98947.78;;;11.70;100.00
12666;BME280;58531;59.050;17.416;2024-03-29T12:41:31;98953.91;;;11.92;100.00
12666;BME280;58531;59.050;17.416;2024-03-29T12:44:00;98951.75;;;12.18;100.00
12666;BME280;58531;59.050;17.416;2024-03-29T12:46:27;98960.81;;;12.48;100.00
12666;BME280;58531;59.050;17.416;2024-03-29T12:48:58;98964.44;;;12.67;100.00
12666;BME280;58531;59.050;17.416;2024-03-29T12:51:26;98962.47;;;12.73;100.00